Terminal Aerodrome Forecast
Issued by NWS Corpus Christi, TX

Home | Current Version | Previous Version | Text Only | Print | Product List | Glossary On
Versions: 1 2 3 4 5 6 7 8 9 10 11 12 13 14 15 16 17 18 19
000
FTUS44 KCRP 202300
TAFVCT
TAF
KVCT 202324Z 2100/2124 14015G20KT P6SM FEW025 OVC090
     FM210200 14007KT P6SM SCT012 BKN100
     FM210700 13005KT 5SM BR OVC010
      TEMPO 2109/2113 1SM BR OVC004
     FM211400 17012KT P6SM SCT025 BKN035
     FM212000 16012G18KT P6SM FEW030=

USA.gov is the U.S. government's official web portal to all federal, state and local government web resources and services.